Time;durP1;ratioP1;P1;durP2;ratioP2;P2;SDS_P1;SDS_P2;PMS_P1;PMS_P2;Temp;Humidity;BMP_temperature;BMP_pressure;BME280_temperature;BME280_humidity;BME280_pressure;Samples;Min_cycle;Max_cycle;Signal;HPM_P1;HPM_P2
2023/08/17 00:02:13;;;;;;;5.32;4.20;;;20.10;80.80;;;;;;5012972;28;20022;-74
2023/08/17 00:04:39;;;;;;;6.07;3.60;;;20.00;81.10;;;;;;5012487;28;20475;-74
2023/08/17 00:07:05;;;;;;;5.40;3.70;;;20.10;81.80;;;;;;5013073;28;20034;-79
2023/08/17 00:09:31;;;;;;;5.80;4.43;;;20.10;81.40;;;;;;5013033;28;20026;-78
2023/08/17 00:11:57;;;;;;;5.60;3.80;;;20.20;81.30;;;;;;5012754;28;20459;-79
2023/08/17 00:14:23;;;;;;;9.27;4.38;;;20.10;81.00;;;;;;5012769;28;20525;-77
2023/08/17 00:16:50;;;;;;;5.22;4.22;;;20.20;81.00;;;;;;5012518;28;20026;-78
2023/08/17 00:19:16;;;;;;;5.65;4.03;;;20.20;80.60;;;;;;5012759;28;20022;-77
2023/08/17 00:21:41;;;;;;;9.95;4.60;;;20.10;80.60;;;;;;5012922;28;20033;-77
2023/08/17 00:24:07;;;;;;;8.23;3.92;;;19.90;81.50;;;;;;5012928;28;20629;-77
2023/08/17 00:26:33;;;;;;;7.93;3.90;;;19.90;81.60;;;;;;4995291;28;20030;-77
2023/08/17 00:28:58;;;;;;;7.03;4.03;;;20.00;81.50;;;;;;5012815;28;20045;-73
2023/08/17 00:31:24;;;;;;;4.53;3.83;;;20.00;81.20;;;;;;5012783;28;20034;-73
2023/08/17 00:33:49;;;;;;;4.65;3.80;;;20.10;81.30;;;;;;5012659;28;20037;-74
2023/08/17 00:36:15;;;;;;;10.30;4.63;;;20.10;80.80;;;;;;5015920;28;20097;-74
2023/08/17 00:38:41;;;;;;;9.40;4.50;;;19.90;81.30;;;;;;5016293;28;20021;-73
2023/08/17 00:41:06;;;;;;;6.32;4.72;;;19.80;81.80;;;;;;5016617;28;20053;-73
2023/08/17 00:43:32;;;;;;;6.40;4.78;;;19.60;82.50;;;;;;4998806;28;20044;-72
2023/08/17 00:45:57;;;;;;;6.70;5.00;;;19.50;83.00;;;;;;5016304;28;20112;-71
2023/08/17 00:48:24;;;;;;;6.85;4.55;;;19.40;83.40;;;;;;5016436;28;20030;-71
2023/08/17 00:50:52;;;;;;;7.40;4.30;;;19.40;83.60;;;;;;5016401;28;20026;-72
2023/08/17 00:53:18;;;;;;;4.80;4.10;;;19.50;83.30;;;;;;5016325;28;20022;-73
2023/08/17 00:55:44;;;;;;;8.07;4.53;;;19.60;83.00;;;;;;5016223;28;20429;-71
2023/08/17 00:58:09;;;;;;;6.05;4.05;;;19.70;82.50;;;;;;5016149;28;20018;-71
2023/08/17 01:00:35;;;;;;;10.25;4.60;;;19.50;82.80;;;;;;4998381;28;20034;-72
2023/08/17 01:03:01;;;;;;;5.72;4.35;;;19.50;83.20;;;;;;5016153;28;20061;-71
2023/08/17 01:05:26;;;;;;;5.32;4.43;;;19.40;83.40;;;;;;5015971;28;20054;-72
2023/08/17 01:07:52;;;;;;;7.43;4.40;;;19.40;84.50;;;;;;5016045;28;20021;-71
2023/08/17 01:10:18;;;;;;;5.65;4.43;;;19.40;83.50;;;;;;5015762;28;20030;-71
2023/08/17 01:12:49;;;;;;;6.35;4.15;;;19.30;83.80;;;;;;5015726;28;20498;-71
2023/08/17 01:15:21;;;;;;;5.32;4.03;;;19.40;83.80;;;;;;5015818;28;20049;-73
2023/08/17 01:18:04;;;;;;;9.13;4.47;;;19.50;83.80;;;;;;5015813;28;20572;-73
2023/08/17 01:20:31;;;;;;;4.25;3.85;;;19.60;82.90;;;;;;5015812;28;20022;-72
2023/08/17 01:23:06;;;;;;;4.95;3.75;;;19.60;82.60;;;;;;4997683;28;20033;-73
2023/08/17 01:25:36;;;;;;;8.05;4.30;;;19.80;82.30;;;;;;5015554;28;20100;-72
2023/08/17 01:28:05;;;;;;;8.82;4.80;;;19.80;81.80;;;;;;5015660;28;20033;-73
2023/08/17 01:30:42;;;;;;;12.30;4.95;;;19.80;81.80;;;;;;5015660;28;20034;-73
2023/08/17 01:33:09;;;;;;;6.10;4.28;;;19.80;81.60;;;;;;5015561;28;20138;-72
2023/08/17 01:35:50;;;;;;;5.57;4.22;;;19.80;81.50;;;;;;5015402;28;20562;-72
2023/08/17 01:38:18;;;;;;;6.78;4.50;;;19.90;82.20;;;;;;5015412;28;20470;-73
2023/08/17 01:40:47;;;;;;;5.10;3.85;;;19.90;82.10;;;;;;5015242;28;20042;-72
2023/08/17 01:43:14;;;;;;;6.05;4.18;;;19.90;81.20;;;;;;5015201;28;20018;-73
2023/08/17 01:45:40;;;;;;;3.92;3.40;;;19.90;81.00;;;;;;5014725;28;20030;-72
2023/08/17 01:48:05;;;;;;;7.80;4.10;;;19.80;80.90;;;;;;5014375;28;20026;-73
2023/08/17 01:50:31;;;;;;;6.13;4.10;;;19.80;80.80;;;;;;5014854;28;20070;-72
2023/08/17 01:52:56;;;;;;;7.78;4.65;;;19.70;81.00;;;;;;5014888;28;20049;-72
2023/08/17 01:55:23;;;;;;;6.65;4.45;;;19.60;81.70;;;;;;5014859;28;20077;-73
2023/08/17 01:57:48;;;;;;;5.18;4.07;;;19.40;82.20;;;;;;5014807;28;20022;-73
2023/08/17 02:00:15;;;;;;;6.90;4.50;;;19.40;82.60;;;;;;5014845;28;20083;-73
2023/08/17 02:02:40;;;;;;;6.20;4.07;;;19.40;82.70;;;;;;4989200;28;20479;-73
2023/08/17 02:05:07;;;;;;;6.22;4.30;;;19.50;82.70;;;;;;5014631;28;20091;-72
2023/08/17 02:07:32;;;;;;;4.03;3.53;;;19.60;82.70;;;;;;5014800;28;20033;-72
2023/08/17 02:09:58;;;;;;;4.47;3.70;;;19.60;81.20;;;;;;5014729;28;20383;-73
2023/08/17 02:12:23;;;;;;;6.00;3.58;;;19.60;81.30;;;;;;5015526;28;20113;-73
2023/08/17 02:14:49;;;;;;;6.78;3.83;;;19.70;81.20;;;;;;5014816;28;20386;-73
2023/08/17 02:17:16;;;;;;;5.40;3.65;;;19.70;81.10;;;;;;5014536;28;20041;-73
2023/08/17 02:19:42;;;;;;;4.88;3.65;;;19.60;80.80;;;;;;5014805;28;20024;-73
2023/08/17 02:22:08;;;;;;;5.75;4.03;;;19.60;80.80;;;;;;5014665;28;20129;-73
2023/08/17 02:24:34;;;;;;;6.65;4.10;;;19.50;81.10;;;;;;5014481;28;20037;-73
2023/08/17 02:26:59;;;;;;;3.95;3.33;;;19.50;81.40;;;;;;5014529;28;20025;-73
2023/08/17 02:29:25;;;;;;;7.78;4.10;;;19.60;81.50;;;;;;5014383;28;20032;-74
2023/08/17 02:31:51;;;;;;;3.70;3.40;;;19.50;81.60;;;;;;4996665;28;20031;-72
2023/08/17 02:34:16;;;;;;;5.50;3.80;;;19.50;81.50;;;;;;5014026;28;20026;-71
2023/08/17 02:36:42;;;;;;;9.90;4.15;;;19.60;81.50;;;;;;5013898;28;20034;-72
2023/08/17 02:39:07;;;;;;;4.82;3.20;;;19.60;81.20;;;;;;5014242;28;20022;-72
2023/08/17 02:41:33;;;;;;;7.75;3.63;;;19.60;80.90;;;;;;5014138;28;20052;-72
2023/08/17 02:43:58;;;;;;;5.45;3.38;;;19.60;80.70;;;;;;5014036;28;20053;-72
2023/08/17 02:46:24;;;;;;;5.65;3.40;;;19.60;80.80;;;;;;5013997;28;20501;-73
2023/08/17 02:48:50;;;;;;;4.85;3.72;;;19.70;80.60;;;;;;4996431;28;20475;-73
2023/08/17 02:51:16;;;;;;;5.82;3.70;;;19.70;80.60;;;;;;5013945;28;20017;-73
2023/08/17 02:53:41;;;;;;;3.92;3.53;;;19.70;80.50;;;;;;5013850;28;20037;-73
2023/08/17 02:56:09;;;;;;;6.28;3.63;;;19.70;80.50;;;;;;5013756;28;20038;-74
2023/08/17 02:58:35;;;;;;;6.93;4.22;;;19.70;80.20;;;;;;5013461;28;20026;-73
2023/08/17 03:01:03;;;;;;;9.05;3.90;;;19.60;80.00;;;;;;5013778;28;20093;-72
2023/08/17 03:03:28;;;;;;;7.00;4.38;;;19.50;80.10;;;;;;5013675;28;20017;-73
2023/08/17 03:05:54;;;;;;;6.95;4.00;;;19.30;81.00;;;;;;5013527;28;20050;-72
2023/08/17 03:08:19;;;;;;;4.68;3.90;;;19.10;82.00;;;;;;5013474;28;20025;-72
2023/08/17 03:10:45;;;;;;;6.53;3.90;;;19.00;82.80;;;;;;5013616;28;20026;-73
2023/08/17 03:13:10;;;;;;;5.70;4.22;;;18.90;83.10;;;;;;5013487;28;20490;-74
2023/08/17 03:15:39;;;;;;;4.88;3.63;;;18.90;83.40;;;;;;5013424;28;20034;-74
2023/08/17 03:18:05;;;;;;;6.32;3.97;;;18.90;83.50;;;;;;5013475;28;20097;-75
2023/08/17 03:20:31;;;;;;;4.38;3.88;;;18.90;83.30;;;;;;5013414;28;20440;-74
2023/08/17 03:22:56;;;;;;;5.95;4.25;;;19.00;83.30;;;;;;5013429;28;20056;-74
2023/08/17 03:25:22;;;;;;;5.70;3.95;;;19.00;83.00;;;;;;5013347;28;20034;-74
2023/08/17 03:27:47;;;;;;;6.00;4.05;;;19.10;83.20;;;;;;4995738;28;20117;-73
2023/08/17 03:30:13;;;;;;;7.78;4.30;;;19.20;82.20;;;;;;5013363;28;20034;-75
2023/08/17 03:32:39;;;;;;;4.30;3.72;;;19.40;81.60;;;;;;5013221;28;20125;-73
2023/08/17 03:35:05;;;;;;;5.75;3.83;;;19.40;81.20;;;;;;5013016;28;20034;-74
2023/08/17 03:37:30;;;;;;;6.85;3.88;;;19.30;81.10;;;;;;5013140;28;20030;-73
2023/08/17 03:39:56;;;;;;;6.53;3.70;;;19.30;81.20;;;;;;5013113;28;20041;-74
2023/08/17 03:42:21;;;;;;;7.65;4.20;;;19.30;81.60;;;;;;5013114;28;20379;-73
2023/08/17 03:44:47;;;;;;;5.60;3.70;;;19.30;81.10;;;;;;5013046;28;20466;-72
2023/08/17 03:47:12;;;;;;;7.00;3.70;;;19.30;80.60;;;;;;5013051;28;20026;-73
2023/08/17 03:49:38;;;;;;;6.93;3.78;;;19.20;81.00;;;;;;5013099;28;20029;-78
2023/08/17 03:52:04;;;;;;;5.80;3.65;;;19.20;81.00;;;;;;5012846;28;20064;-74
2023/08/17 03:54:29;;;;;;;6.10;3.65;;;19.10;81.00;;;;;;5012900;28;20509;-76
2023/08/17 03:56:55;;;;;;;5.65;3.97;;;19.00;81.20;;;;;;5012894;28;20505;-76
2023/08/17 03:59:20;;;;;;;5.47;4.00;;;19.00;81.10;;;;;;5012966;28;20056;-72
2023/08/17 04:01:46;;;;;;;4.25;3.85;;;18.90;81.90;;;;;;5012874;28;20447;-72
2023/08/17 04:04:12;;;;;;;5.78;4.45;;;18.90;81.80;;;;;;5012858;28;20178;-71
2023/08/17 04:06:39;;;;;;;5.75;4.45;;;18.90;81.90;;;;;;5012694;28;20084;-71
2023/08/17 04:09:04;;;;;;;6.30;4.28;;;18.90;82.30;;;;;;5012855;28;20378;-71
2023/08/17 04:11:31;;;;;;;5.03;4.40;;;18.90;82.60;;;;;;5016697;28;20072;-72
2023/08/17 04:13:56;;;;;;;4.97;4.00;;;18.90;82.70;;;;;;5016708;28;20522;-72
2023/08/17 04:16:22;;;;;;;5.68;4.63;;;18.90;82.80;;;;;;5016544;28;20041;-75
2023/08/17 04:18:47;;;;;;;7.57;4.53;;;18.90;82.80;;;;;;5016959;28;20089;-76
2023/08/17 04:21:13;;;;;;;7.03;4.20;;;19.00;82.90;;;;;;5016753;28;20109;-74
2023/08/17 04:23:39;;;;;;;3.85;3.55;;;19.10;82.60;;;;;;5016606;28;20029;-76
2023/08/17 04:26:04;;;;;;;4.22;3.78;;;19.10;81.90;;;;;;5016690;28;20080;-72
2023/08/17 04:28:30;;;;;;;6.00;3.55;;;19.10;81.50;;;;;;5016561;28;20030;-72
2023/08/17 04:30:55;;;;;;;9.45;4.50;;;19.10;81.60;;;;;;5016246;28;20363;-73
2023/08/17 04:33:21;;;;;;;4.30;3.50;;;19.10;81.60;;;;;;5016591;28;20026;-73
2023/08/17 04:35:47;;;;;;;4.22;3.83;;;19.10;81.20;;;;;;5016460;28;20037;-72
2023/08/17 04:38:13;;;;;;;4.70;3.28;;;19.10;81.20;;;;;;5016517;28;20022;-73
2023/08/17 04:40:39;;;;;;;7.10;3.80;;;19.20;81.40;;;;;;5016350;28;20138;-73
2023/08/17 04:43:04;;;;;;;3.80;2.95;;;19.20;81.10;;;;;;5016344;28;20034;-73
2023/08/17 04:45:30;;;;;;;4.22;3.38;;;19.30;80.40;;;;;;5016197;28;20108;-72
2023/08/17 04:47:55;;;;;;;3.40;3.10;;;19.30;79.90;;;;;;4998622;28;20022;-73
2023/08/17 04:50:21;;;;;;;8.07;3.75;;;19.30;80.00;;;;;;5016361;28;20451;-72
2023/08/17 04:52:46;;;;;;;6.80;4.05;;;19.30;80.10;;;;;;5016118;28;20030;-72
2023/08/17 04:55:15;;;;;;;4.00;3.60;;;19.40;80.00;;;;;;5016038;28;20046;-72
2023/08/17 04:57:41;;;;;;;4.15;3.13;;;19.40;79.60;;;;;;5015816;28;20029;-72
2023/08/17 05:00:09;;;;;;;4.07;3.50;;;19.40;79.50;;;;;;5015869;28;20022;-72
2023/08/17 05:02:35;;;;;;;4.47;2.95;;;19.40;79.40;;;;;;5015940;28;20026;-72
2023/08/17 05:05:04;;;;;;;3.95;3.55;;;19.40;79.20;;;;;;5015789;28;20129;-71
2023/08/17 05:07:30;;;;;;;6.47;3.65;;;19.40;79.30;;;;;;5015760;28;20483;-71
2023/08/17 05:09:55;;;;;;;4.10;3.47;;;19.40;79.40;;;;;;5022204;28;20033;-72
2023/08/17 05:12:21;;;;;;;5.45;3.20;;;19.50;79.50;;;;;;5035566;28;20044;-71
2023/08/17 05:14:46;;;;;;;3.88;3.50;;;19.50;79.40;;;;;;5035457;28;20040;-71
2023/08/17 05:17:12;;;;;;;4.05;3.50;;;19.60;79.40;;;;;;5035764;28;20040;-75
2023/08/17 05:19:39;;;;;;;3.63;3.33;;;19.70;79.20;;;;;;5034957;28;20026;-73
2023/08/17 05:22:05;;;;;;;3.90;3.50;;;19.70;79.00;;;;;;5035296;28;20029;-72
2023/08/17 05:24:31;;;;;;;4.53;3.40;;;19.80;78.90;;;;;;5035415;28;20026;-72
2023/08/17 05:26:57;;;;;;;9.13;4.80;;;19.80;78.40;;;;;;5035330;28;20474;-72
2023/08/17 05:29:23;;;;;;;6.22;4.03;;;19.80;78.40;;;;;;5035343;28;20374;-72
2023/08/17 05:31:48;;;;;;;4.20;3.75;;;19.80;78.70;;;;;;5035244;28;20033;-73
2023/08/17 05:34:14;;;;;;;5.53;3.60;;;19.80;78.90;;;;;;5035444;28;20025;-73
2023/08/17 05:36:40;;;;;;;6.18;3.83;;;19.80;78.70;;;;;;5035219;28;20367;-72
2023/08/17 05:39:06;;;;;;;5.10;3.05;;;19.90;78.80;;;;;;5035273;28;20174;-72
2023/08/17 05:41:32;;;;;;;5.10;3.47;;;19.90;78.80;;;;;;5017322;28;20148;-77
2023/08/17 05:43:58;;;;;;;6.90;4.18;;;20.00;78.60;;;;;;5034751;28;20032;-72
2023/08/17 05:46:24;;;;;;;4.75;3.88;;;20.10;78.60;;;;;;5035830;28;20028;-88
2023/08/17 05:48:49;;;;;;;5.10;3.80;;;20.10;79.20;;;;;;5028115;28;20041;-86
2023/08/17 05:51:15;;;;;;;8.13;4.00;;;20.00;78.80;;;;;;5039802;28;20048;-87
2023/08/17 05:53:40;;;;;;;6.03;3.83;;;20.00;78.80;;;;;;5038218;28;20029;-88
2023/08/17 05:56:07;;;;;;;6.85;3.90;;;20.10;78.90;;;;;;5046139;28;20030;-83
2023/08/17 05:58:32;;;;;;;4.65;3.97;;;20.20;78.50;;;;;;5041078;28;20072;-84
2023/08/17 06:01:09;;;;;;;5.25;3.80;;;20.30;78.20;;;;;;5058816;28;20032;-82
2023/08/17 06:03:35;;;;;;;4.05;3.22;;;20.50;77.70;;;;;;5047200;28;20524;-87
2023/08/17 06:06:01;;;;;;;4.45;3.55;;;20.60;78.20;;;;;;5041125;28;20106;-89
2023/08/17 06:08:27;;;;;;;6.60;4.15;;;20.60;77.00;;;;;;5023905;28;20085;-87
2023/08/17 06:10:52;;;;;;;4.10;3.65;;;20.70;76.70;;;;;;5017580;28;20029;-87
2023/08/17 06:13:18;;;;;;;4.38;3.92;;;20.80;76.50;;;;;;5032893;28;20064;-71
2023/08/17 06:15:43;;;;;;;6.47;3.97;;;20.80;76.60;;;;;;5034221;28;20445;-72
2023/08/17 06:18:09;;;;;;;5.70;3.83;;;20.90;76.70;;;;;;5016762;28;20017;-71
2023/08/17 06:20:35;;;;;;;5.80;3.95;;;21.00;76.60;;;;;;5016427;28;20481;-73
2023/08/17 06:23:00;;;;;;;6.35;4.10;;;21.00;76.50;;;;;;5033830;28;20036;-72
2023/08/17 06:25:26;;;;;;;4.07;3.67;;;21.10;76.30;;;;;;5033954;28;20040;-72
2023/08/17 06:27:52;;;;;;;4.50;3.85;;;21.20;76.20;;;;;;5016075;28;20025;-72
2023/08/17 06:30:18;;;;;;;5.05;3.95;;;21.30;75.70;;;;;;5016425;28;20466;-72
2023/08/17 06:32:43;;;;;;;5.68;3.70;;;21.50;75.50;;;;;;5033499;28;20044;-72
2023/08/17 06:35:09;;;;;;;4.97;3.95;;;21.60;74.90;;;;;;5034187;28;20568;-75
2023/08/17 06:37:35;;;;;;;6.95;4.70;;;21.80;74.00;;;;;;5034673;28;20022;-81
2023/08/17 06:40:05;;;;;;;12.77;5.63;;;22.00;73.60;;;;;;5016307;28;20103;-81
2023/08/17 06:42:31;;;;;;;7.05;4.18;;;22.10;72.80;;;;;;5016516;28;20112;-82
2023/08/17 06:45:04;;;;;;;8.93;4.93;;;22.30;72.40;;;;;;5016380;28;20120;-79
2023/08/17 06:47:33;;;;;;;22.60;6.32;;;22.60;71.70;;;;;;5034046;28;20112;-82
2023/08/17 06:49:59;;;;;;;7.65;4.57;;;22.80;70.80;;;;;;5015507;28;20120;-77
2023/08/17 06:52:24;;;;;;;11.98;4.95;;;22.90;70.30;;;;;;5015953;28;20044;-80
2023/08/17 06:54:50;;;;;;;7.65;5.10;;;22.90;69.90;;;;;;5015581;28;20036;-83
2023/08/17 06:57:16;;;;;;;8.10;5.50;;;22.60;70.60;;;;;;5033308;28;20367;-83
2023/08/17 06:59:45;;;;;;;10.57;5.10;;;22.40;71.30;;;;;;5015359;28;20083;-83
2023/08/17 07:02:18;;;;;;;6.45;4.15;;;22.40;71.90;;;;;;5016781;28;20088;-83
2023/08/17 07:04:53;;;;;;;6.63;4.43;;;22.30;72.40;;;;;;5000625;28;20129;-83
2023/08/17 07:07:20;;;;;;;4.85;4.22;;;22.40;72.40;;;;;;5015479;28;20038;-83
2023/08/17 07:09:46;;;;;;;8.93;4.20;;;22.40;72.10;;;;;;4999258;28;20040;-84
2023/08/17 07:12:12;;;;;;;7.15;5.05;;;22.50;71.80;;;;;;5032366;28;20029;-83
2023/08/17 07:14:39;;;;;;;6.70;4.05;;;22.50;71.70;;;;;;5015573;28;20025;-82
2023/08/17 07:17:05;;;;;;;11.32;5.70;;;22.60;71.30;;;;;;5033212;28;20038;-83
2023/08/17 07:19:33;;;;;;;5.10;4.60;;;22.70;71.30;;;;;;5033142;28;20428;-82
2023/08/17 07:22:00;;;;;;;5.95;4.88;;;22.90;71.00;;;;;;5015286;28;20075;-82
2023/08/17 07:24:26;;;;;;;7.88;4.45;;;23.10;70.70;;;;;;4999055;28;20022;-82
2023/08/17 07:26:52;;;;;;;4.93;4.15;;;23.30;69.90;;;;;;4999450;28;20076;-81
2023/08/17 07:29:29;;;;;;;6.28;4.20;;;23.50;69.20;;;;;;5015891;28;20025;-81
2023/08/17 07:32:01;;;;;;;5.72;3.88;;;23.60;68.50;;;;;;5015377;28;20036;-81
2023/08/17 07:34:31;;;;;;;6.18;3.72;;;23.70;68.00;;;;;;5015800;28;20367;-81
2023/08/17 07:36:59;;;;;;;5.40;3.75;;;23.70;67.90;;;;;;5015110;28;20041;-80
2023/08/17 07:39:26;;;;;;;8.68;4.88;;;23.80;67.70;;;;;;5015306;28;20029;-82
2023/08/17 07:41:53;;;;;;;13.35;5.22;;;23.80;67.70;;;;;;4998773;28;20490;-82
2023/08/17 07:44:19;;;;;;;5.70;3.70;;;23.70;68.20;;;;;;5014299;28;20105;-82
2023/08/17 07:46:45;;;;;;;6.07;4.18;;;23.70;68.30;;;;;;4983303;28;20073;-83
2023/08/17 07:49:15;;;;;;;6.97;3.90;;;23.80;68.60;;;;;;5015374;28;20017;-83
2023/08/17 07:51:41;;;;;;;5.82;4.18;;;23.90;68.30;;;;;;4999562;28;20351;-82
2023/08/17 07:54:07;;;;;;;9.65;4.93;;;23.90;68.10;;;;;;5015352;28;20028;-83
2023/08/17 07:56:34;;;;;;;6.57;4.70;;;24.00;68.00;;;;;;5015120;28;20338;-82
2023/08/17 07:59:00;;;;;;;10.52;4.82;;;24.10;68.10;;;;;;4998700;28;20478;-81
2023/08/17 08:01:28;;;;;;;6.15;3.88;;;24.20;68.30;;;;;;5015055;28;20061;-82
2023/08/17 08:03:55;;;;;;;8.05;4.25;;;24.20;68.80;;;;;;5014683;28;20021;-84
2023/08/17 08:06:20;;;;;;;6.72;3.92;;;24.30;67.90;;;;;;4998191;28;20081;-83
2023/08/17 08:08:46;;;;;;;4.15;3.67;;;24.30;67.80;;;;;;5014790;28;20583;-82
2023/08/17 08:11:13;;;;;;;5.07;4.35;;;24.50;67.50;;;;;;5014481;28;20450;-82
2023/08/17 08:13:41;;;;;;;6.53;4.45;;;24.50;68.00;;;;;;5014478;28;20064;-82
2023/08/17 08:16:07;;;;;;;5.47;4.10;;;24.60;67.60;;;;;;5014509;28;20106;-82
2023/08/17 08:18:33;;;;;;;7.60;5.25;;;24.50;67.40;;;;;;4998069;28;20128;-82
2023/08/17 08:20:59;;;;;;;6.22;4.82;;;24.50;68.80;;;;;;4998513;28;20121;-82
2023/08/17 08:23:26;;;;;;;5.75;4.13;;;24.50;69.00;;;;;;4998653;28;20509;-84
2023/08/17 08:25:52;;;;;;;6.78;4.20;;;24.60;68.10;;;;;;5014531;28;20029;-80
2023/08/17 08:28:18;;;;;;;5.82;4.20;;;24.80;67.70;;;;;;5015026;28;20112;-80
2023/08/17 08:30:44;;;;;;;8.50;4.57;;;24.90;67.50;;;;;;5015592;28;20518;-84
2023/08/17 08:33:09;;;;;;;6.53;4.40;;;25.00;67.30;;;;;;4998490;28;20037;-83
2023/08/17 08:35:35;;;;;;;7.10;4.30;;;25.20;66.20;;;;;;5014794;28;20099;-82
2023/08/17 08:38:02;;;;;;;4.28;3.88;;;25.40;65.90;;;;;;4998254;28;20093;-82
2023/08/17 08:40:30;;;;;;;4.82;4.30;;;25.50;66.20;;;;;;5014135;28;20022;-83
2023/08/17 08:42:57;;;;;;;5.40;4.60;;;25.40;66.30;;;;;;5015338;28;20025;-83
2023/08/17 08:45:27;;;;;;;5.68;4.45;;;25.40;66.10;;;;;;5032429;28;20036;-82
2023/08/17 08:48:00;;;;;;;8.85;4.55;;;25.50;65.60;;;;;;5014486;28;20072;-83
2023/08/17 08:50:31;;;;;;;4.85;4.35;;;25.40;66.30;;;;;;5016004;28;20040;-83
2023/08/17 08:53:03;;;;;;;7.35;4.40;;;25.40;66.30;;;;;;5014601;28;20494;-84
2023/08/17 08:55:39;;;;;;;6.97;4.80;;;25.50;65.90;;;;;;5014771;28;20040;-83
2023/08/17 08:58:06;;;;;;;6.70;4.75;;;25.50;65.50;;;;;;5018917;28;20091;-83
2023/08/17 09:00:33;;;;;;;5.40;4.32;;;25.30;65.90;;;;;;5018434;28;20527;-82
2023/08/17 09:03:01;;;;;;;7.57;4.47;;;25.30;67.00;;;;;;5018117;28;20033;-82
2023/08/17 09:05:28;;;;;;;4.28;3.88;;;25.40;65.50;;;;;;5035508;28;20097;-83
2023/08/17 09:07:54;;;;;;;5.50;4.13;;;25.50;65.70;;;;;;5036243;28;20057;-82
2023/08/17 09:10:20;;;;;;;7.07;4.28;;;25.60;64.70;;;;;;5017695;28;20049;-82
2023/08/17 09:12:48;;;;;;;4.72;4.00;;;25.70;64.40;;;;;;5035759;28;20072;-83
2023/08/17 09:15:21;;;;;;;7.28;4.05;;;26.00;64.00;;;;;;5018115;28;20482;-82
2023/08/17 09:17:49;;;;;;;9.02;4.70;;;26.10;64.00;;;;;;5017581;28;20076;-83
2023/08/17 09:20:42;;;;;;;5.80;4.43;;;26.30;63.60;;;;;;5017438;28;20040;-82
2023/08/17 09:23:19;;;;;;;6.10;4.20;;;26.50;61.10;;;;;;5036020;28;20018;-83
2023/08/17 09:26:12;;;;;;;7.53;4.80;;;26.50;60.90;;;;;;5017862;28;20044;-82
2023/08/17 09:28:41;;;;;;;8.18;4.03;;;26.70;60.60;;;;;;5017502;28;20026;-81
2023/08/17 09:31:37;;;;;;;8.23;4.10;;;26.70;61.80;;;;;;5019327;28;20032;-84
2023/08/17 09:34:10;;;;;;;6.80;4.60;;;26.80;59.80;;;;;;5003844;28;20031;-85
2023/08/17 09:36:39;;;;;;;6.32;3.53;;;26.80;57.80;;;;;;4986415;28;20049;-82
2023/08/17 09:39:10;;;;;;;7.32;5.00;;;26.70;58.50;;;;;;5017900;28;20037;-84
2023/08/17 09:42:02;;;;;;;4.43;3.92;;;26.70;59.10;;;;;;5043977;28;20052;-84
2023/08/17 09:44:38;;;;;;;5.78;4.13;;;26.90;58.80;;;;;;5018508;28;20450;-84
2023/08/17 09:47:11;;;;;;;6.47;4.00;;;27.00;58.30;;;;;;5043326;28;20037;-84
2023/08/17 09:50:25;;;;;;;5.53;4.18;;;27.20;55.90;;;;;;5017695;28;20385;-84
2023/08/17 09:53:18;;;;;;;9.75;4.03;;;27.40;56.10;;;;;;5025935;28;20051;-82
2023/08/17 09:55:48;;;;;;;5.13;3.55;;;27.50;54.80;;;;;;5017149;28;20029;-84
2023/08/17 09:58:17;;;;;;;5.78;3.97;;;27.70;54.60;;;;;;5017977;28;20029;-82
2023/08/17 10:00:49;;;;;;;4.72;3.80;;;27.90;53.70;;;;;;5035378;28;20021;-81
2023/08/17 10:03:15;;;;;;;5.72;3.80;;;28.00;54.20;;;;;;5034770;28;20025;-71
2023/08/17 10:05:43;;;;;;;7.25;3.88;;;28.20;53.00;;;;;;5016554;28;20048;-72
2023/08/17 10:08:11;;;;;;;5.38;3.78;;;28.30;51.30;;;;;;5015671;28;20389;-76
2023/08/17 10:10:42;;;;;;;5.75;3.72;;;28.50;51.10;;;;;;5034269;28;20040;-72
2023/08/17 10:13:20;;;;;;;3.47;3.08;;;28.70;49.80;;;;;;5034363;28;20027;-72
2023/08/17 10:16:08;;;;;;;5.88;3.42;;;28.90;49.40;;;;;;5033846;28;20029;-72
2023/08/17 10:19:06;;;;;;;5.90;4.32;;;28.80;46.30;;;;;;5034300;28;20049;-74
2023/08/17 10:21:43;;;;;;;3.92;3.58;;;28.90;48.60;;;;;;5033838;28;20022;-72
2023/08/17 10:24:10;;;;;;;8.35;3.83;;;29.10;47.80;;;;;;5034057;28;20022;-73
2023/08/17 10:26:36;;;;;;;4.20;3.42;;;29.10;49.50;;;;;;5033946;28;20022;-73
2023/08/17 10:29:03;;;;;;;7.25;4.07;;;29.10;49.20;;;;;;5016168;28;20187;-74
2023/08/17 10:31:29;;;;;;;5.75;3.35;;;29.20;48.30;;;;;;5034073;28;20025;-72
2023/08/17 10:33:57;;;;;;;4.03;3.08;;;29.10;48.90;;;;;;5033675;28;20033;-79
2023/08/17 10:36:23;;;;;;;5.63;3.72;;;29.20;48.40;;;;;;5033388;28;20141;-72
2023/08/17 10:39:18;;;;;;;4.50;3.17;;;29.30;47.20;;;;;;5034147;28;20112;-79
2023/08/17 10:41:48;;;;;;;4.85;3.30;;;29.50;47.30;;;;;;5033837;28;20025;-73
2023/08/17 10:44:13;;;;;;;4.47;3.03;;;29.60;47.70;;;;;;5033874;28;20050;-77
2023/08/17 10:46:40;;;;;;;5.68;3.65;;;29.60;47.10;;;;;;5033835;28;20115;-72
2023/08/17 10:49:23;;;;;;;4.78;3.30;;;29.70;47.10;;;;;;5033741;28;20017;-76
2023/08/17 10:52:03;;;;;;;4.55;3.75;;;29.90;48.60;;;;;;5016122;28;20386;-77
2023/08/17 10:54:40;;;;;;;4.78;3.50;;;29.80;46.90;;;;;;5033584;28;20084;-73
2023/08/17 10:57:28;;;;;;;6.18;3.67;;;30.00;47.00;;;;;;5033772;28;20486;-72
2023/08/17 11:00:08;;;;;;;6.63;3.33;;;30.00;46.70;;;;;;5033365;28;20018;-72
2023/08/17 11:02:34;;;;;;;7.15;3.22;;;30.00;45.50;;;;;;5033211;28;20089;-72
2023/08/17 11:05:01;;;;;;;5.45;3.55;;;30.10;46.10;;;;;;5033326;28;20095;-75
2023/08/17 11:07:28;;;;;;;7.22;3.55;;;30.30;47.60;;;;;;5033326;28;20025;-72
2023/08/17 11:09:54;;;;;;;5.35;3.28;;;30.60;47.10;;;;;;5015414;28;20034;-72
2023/08/17 11:12:26;;;;;;;4.30;3.08;;;30.90;46.60;;;;;;5033140;28;20053;-72
2023/08/17 11:14:52;;;;;;;4.13;3.38;;;31.10;46.10;;;;;;5033023;28;20021;-73
2023/08/17 11:17:20;;;;;;;7.68;3.80;;;31.30;45.50;;;;;;5033100;28;20030;-72
2023/08/17 11:19:46;;;;;;;5.00;3.28;;;31.10;45.70;;;;;;5032942;28;20032;-76
2023/08/17 11:22:12;;;;;;;3.75;3.33;;;30.90;43.80;;;;;;5032491;28;20025;-73
2023/08/17 11:24:40;;;;;;;8.50;3.33;;;30.70;45.20;;;;;;5032918;28;20469;-73
2023/08/17 11:27:06;;;;;;;4.13;3.72;;;30.30;47.00;;;;;;5032939;28;20101;-72
2023/08/17 11:29:33;;;;;;;6.53;3.90;;;29.80;48.50;;;;;;5033038;28;20117;-75
2023/08/17 11:31:58;;;;;;;5.82;4.18;;;29.30;49.30;;;;;;5032977;28;20419;-78
2023/08/17 11:34:24;;;;;;;8.98;4.50;;;29.00;51.30;;;;;;5033050;28;20021;-73
2023/08/17 11:36:50;;;;;;;6.38;4.25;;;28.60;53.30;;;;;;5032954;28;20426;-73
2023/08/17 11:39:15;;;;;;;5.78;4.07;;;28.40;55.00;;;;;;5032620;28;20033;-73
2023/08/17 11:41:41;;;;;;;6.53;4.38;;;28.20;56.40;;;;;;5032618;28;20036;-74
2023/08/17 11:44:06;;;;;;;5.68;3.88;;;28.00;56.30;;;;;;5032607;28;20082;-73
2023/08/17 11:46:32;;;;;;;6.75;4.30;;;27.70;56.70;;;;;;5032656;28;20382;-73
2023/08/17 11:49:01;;;;;;;5.07;4.22;;;27.50;58.10;;;;;;5014685;28;20389;-73
2023/08/17 11:51:31;;;;;;;7.40;3.90;;;27.30;59.10;;;;;;5032489;28;20048;-74
2023/08/17 11:54:00;;;;;;;5.03;4.38;;;27.20;60.10;;;;;;5032372;28;20100;-80
2023/08/17 11:56:26;;;;;;;4.13;3.47;;;27.00;61.10;;;;;;5032422;28;20029;-72
2023/08/17 11:58:51;;;;;;;4.50;4.05;;;26.90;60.80;;;;;;5032449;28;20108;-73
2023/08/17 12:01:17;;;;;;;4.25;3.60;;;26.80;61.70;;;;;;5032485;28;20032;-72
2023/08/17 12:03:42;;;;;;;5.32;3.83;;;26.60;62.20;;;;;;5032111;28;20104;-73
2023/08/17 12:06:09;;;;;;;6.55;4.20;;;26.50;62.90;;;;;;5032620;28;20497;-73
2023/08/17 12:08:34;;;;;;;5.13;3.80;;;26.40;61.60;;;;;;5032413;28;20029;-73
2023/08/17 12:11:01;;;;;;;6.25;4.65;;;26.30;60.40;;;;;;5032486;28;20026;-73
2023/08/17 12:13:34;;;;;;;9.55;4.65;;;26.20;58.90;;;;;;5032354;28;20367;-72
2023/08/17 12:16:00;;;;;;;8.40;4.28;;;26.00;59.40;;;;;;5032253;28;20033;-81
2023/08/17 12:18:26;;;;;;;4.90;4.25;;;26.00;59.50;;;;;;5032437;28;20492;-73
2023/08/17 12:20:53;;;;;;;6.30;3.80;;;25.90;58.50;;;;;;5032312;28;20065;-78
2023/08/17 12:23:19;;;;;;;7.90;4.03;;;25.80;59.40;;;;;;5032559;28;20533;-74
2023/08/17 12:25:44;;;;;;;8.07;4.50;;;25.70;60.30;;;;;;5032696;28;20076;-77
2023/08/17 12:28:12;;;;;;;9.77;4.47;;;25.60;61.00;;;;;;5033073;28;20155;-82
2023/08/17 12:30:38;;;;;;;8.57;5.32;;;25.70;61.10;;;;;;5033106;28;20025;-74
2023/08/17 12:33:04;;;;;;;7.82;4.35;;;25.60;61.10;;;;;;5036534;28;20425;-74
2023/08/17 12:35:31;;;;;;;5.60;4.38;;;25.50;60.70;;;;;;5036542;28;20111;-75
2023/08/17 12:37:57;;;;;;;4.70;3.50;;;25.50;60.70;;;;;;5036077;28;20390;-75
2023/08/17 12:40:23;;;;;;;6.38;4.00;;;25.50;60.80;;;;;;5036468;28;20032;-74
2023/08/17 12:42:49;;;;;;;4.05;3.42;;;25.50;60.70;;;;;;5036397;28;20108;-74
2023/08/17 12:45:15;;;;;;;4.38;3.33;;;25.50;60.80;;;;;;5036115;28;20239;-72
2023/08/17 12:47:41;;;;;;;6.20;3.95;;;25.50;61.40;;;;;;5036026;28;20033;-73
2023/08/17 12:50:06;;;;;;;6.22;4.65;;;25.50;61.60;;;;;;5035942;28;20140;-73